TimeEDT,TemperatureF,Dew PointF,Humidity,Sea Level PressureIn,VisibilityMPH,Wind Direction,Wind SpeedMPH,Gust SpeedMPH,PrecipitationIn,Events,Conditions,WindDirDegrees,DateUTC
12:53 AM,84.0,73.9,72,30.03,10.0,East,12.7,-,N/A,,Clear,100,2013-08-01 04:53:00
1:42 AM,84.2,73.4,70,30.01,10.0,East,12.7,-,N/A,,Mostly Cloudy,90,2013-08-01 05:42:00
1:53 AM,84.0,73.0,69,30.00,10.0,East,15.0,-,N/A,,Mostly Cloudy,100,2013-08-01 05:53:00
2:53 AM,82.9,73.9,74,29.97,10.0,East,13.8,-,N/A,,Partly Cloudy,100,2013-08-01 06:53:00
3:53 AM,82.9,75.0,77,29.95,10.0,East,11.5,-,N/A,,Clear,100,2013-08-01 07:53:00
4:53 AM,82.9,75.0,77,29.94,10.0,East,11.5,-,N/A,,Partly Cloudy,90,2013-08-01 08:53:00
5:53 AM,82.9,75.0,77,29.95,10.0,East,12.7,-,N/A,,Partly Cloudy,100,2013-08-01 09:53:00
6:53 AM,82.9,75.0,77,29.97,10.0,East,11.5,-,N/A,,Mostly Cloudy,100,2013-08-01 10:53:00
7:53 AM,84.0,75.0,74,29.99,10.0,East,11.5,-,N/A,,Scattered Clouds,90,2013-08-01 11:53:00
8:53 AM,84.0,75.0,74,30.00,10.0,East,12.7,-,N/A,,Scattered Clouds,100,2013-08-01 12:53:00
9:53 AM,86.0,73.9,67,30.01,10.0,East,11.5,-,N/A,,Partly Cloudy,100,2013-08-01 13:53:00
10:53 AM,87.1,73.9,65,30.00,10.0,East,12.7,-,N/A,,Partly Cloudy,100,2013-08-01 14:53:00
11:53 AM,87.1,73.0,63,30.01,10.0,East,11.5,-,N/A,,Clear,100,2013-08-01 15:53:00
12:53 PM,88.0,73.0,61,30.02,10.0,ESE,10.4,-,N/A,,Clear,110,2013-08-01 16:53:00
1:53 PM,88.0,73.9,63,30.01,10.0,East,10.4,-,N/A,,Clear,100,2013-08-01 17:53:00
2:53 PM,89.1,73.9,61,29.98,10.0,ESE,10.4,-,N/A,,Clear,110,2013-08-01 18:53:00
3:53 PM,88.0,73.9,63,29.96,10.0,SE,9.2,-,N/A,,Clear,130,2013-08-01 19:53:00
4:53 PM,87.1,73.0,63,29.95,10.0,SE,8.1,-,N/A,,Clear,130,2013-08-01 20:53:00
5:53 PM,86.0,72.0,63,29.95,10.0,SSE,8.1,-,N/A,,Clear,150,2013-08-01 21:53:00
6:53 PM,86.0,73.0,65,29.96,10.0,SSE,4.6,-,N/A,,Clear,150,2013-08-01 22:53:00
7:53 PM,84.9,73.0,67,29.98,10.0,ESE,4.6,-,N/A,,Clear,120,2013-08-01 23:53:00
8:53 PM,84.0,73.0,69,29.97,10.0,Calm,Calm,-,N/A,,Clear,0,2013-08-02 00:53:00
9:53 PM,84.0,73.0,69,29.99,10.0,ENE,3.5,-,N/A,,Partly Cloudy,70,2013-08-02 01:53:00
10:53 PM,82.9,75.0,77,29.99,10.0,ENE,6.9,-,N/A,,Clear,70,2013-08-02 02:53:00
11:53 PM,82.9,73.9,74,29.99,10.0,ENE,4.6,-,N/A,,Clear,70,2013-08-02 03:53:00